Nikolaevsk, Alaska
Current Conditions -  °F | °C
As of 9:53 PM on Saturday 22 Nov 2014 (Local Time) from PAHO Reporting Station
Overcast Overcast  
Wind Chill: -2°   Ceiling: 6000
Heat Index:   Visibility: 10mi
Dew Point: -1°   Wind: 5mph
Humidity: 89%   Direction: 40°NE
Pressure: 29.19"   Gusts: NA
Location:  59.8183°N, 151.638°W
Report Text: PAHO 230653Z AUTO 04004KT 10SM OVC060 01/M01 A2919 RMK AO2 SLP885 T00061011 TSNO $
Loading
Personal Weather Stations






























Interactive Weather Map New forecast layout! Learn more

10-Day Weather Forecast

Advertisements
Track Severe Weather on mobile